Terminal Aerodrome Forecast
Issued by NWS

Home | Current Version | Previous Version | Text Only | Print | Product List | Glossary On
Versions: 1 2 3 4 5 6 7 8 9 10 11 12 13
000
FTUS44 KBMX 291100 RRA
TAFANB
TAF
KANB 291141Z 2912/3012 36004KT 6SM BR OVC005
     FM291700 34005KT P6SM OVC007
     FM292000 33004KT P6SM OVC015
     FM300100 32003KT P6SM OVC007=

USA.gov is the U.S. government's official web portal to all federal, state and local government web resources and services.